Austin, TX (78780)

7:00 AM CDT on September 05, 2015 (GMT -0500)
Rollingwood | | Change Station
CLOSE
Current Station
Personal Weather Station
Location: Austin, TX
Elevation: 627 ft
Nearby Weather Stations

Elev 627 ft 30.27 °N, 97.78 °W | Updated 2 seconds ago

Mostly Cloudy
Mostly Cloudy
78.4 °F
Feels Like 82 °F
N
0.0
Wind Variable Wind from SW
Gusts 0.0 mph

Today
High -- | Low -- °F
--% Chance of Precip.
Yesterday
High -- | Low -- °F
Precip. -- in
7:10 AM 7:49 PM
Waning Gibbous, 49% visible
Pressure 29.96 in
Visibility 10.0 miles
Clouds Mostly Cloudy 1000 ft
Heat Index 82 °F
Dew Point 76 °F
Humidity 92%
Rainfall 0.00 in
Snow Depth Not available.
UV 0 out of 12
Pollen 8.10 out of 12
Air Quality Not available.
Flu Activity Not available.
METAR KATT 051151Z AUTO VRB04KT 10SM BKN010 26/24 A3000 RMK AO2 SLP143 T02610239 10267 20261 51004
Pressure 29.96 in
Visibility 10.0 miles
Clouds Mostly Cloudy 1000 ft
Heat Index 82 °F
Dew Point 76 °F
Humidity 92%
Rainfall 0.00 in
Snow Depth Not available.
UV 0 out of 12
Pollen 8.10 out of 12
Air Quality Not available.
Flu Activity Not available.
METAR KATT 051151Z AUTO VRB04KT 10SM BKN010 26/24 A3000 RMK AO2 SLP143 T02610239 10267 20261 51004

10-Day Weather Forecast

×

Almanac

Astronomy

Sep. 05, 2015 Rise Set
Actual Time
Civil Twilight
Nautical Twilight
Astronomical Twilight
Moon
Length of Visible Light
Length of Day
Tomorrow will be .
, % of the Moon is Illuminated

Today's Extremes

State Highs State Lows

Community

WunderPhotos

Upload Photos

1,852,453 photos uploaded!

WunderBlogs® & News

Nearby

Air Quality

  Air Quality AQ Index Pollutant
Not available.

Snow Depth

Station Depth Elevation

Earthquake Activity

City Distance Mag. Time & Date
Minimum magnitude displayed is 2.5.

Coastal Water Temperatures

Place Temperature

Stations

Nearby Weather Stations

Station Location Temp. Windchill Dew Point Humidity Wind Precip. Elev Updated Type